Terminal Aerodrome Forecast
Issued by NWS Chicago, IL

Home | Current Version | Previous Version | Text Only | Print | Product List | Glossary On
Versions: 1 2 3 4 5 6 7 8 9 10 11 12 13 14 15 16 17 18 19 20 21 22 23 24 25 26 27 28 29 30
000
FTUS43 KLOT 281939 AAA
TAFRFD
TAF AMD
KRFD 281939Z 2820/2918 18012G20KT P6SM FEW050 BKN250
     FM290300 13008KT P6SM FEW050 BKN250
     FM290900 17010KT P6SM -SHRA BKN040
     FM291400 19012KT 3SM TSRA BKN030CB=

USA.gov is the U.S. government's official web portal to all federal, state and local government web resources and services.